sensor_id;sensor_type;location;lat;lon;timestamp;pressure;altitude;pressure_sealevel;temperature;humidity
59650;BME280;46162;57.568;25.814;2023-06-22T00:01:41;100743.59;;;14.85;100.00
59650;BME280;46162;57.568;25.814;2023-06-22T00:04:10;100742.22;;;14.58;100.00
59650;BME280;46162;57.568;25.814;2023-06-22T00:06:40;100739.56;;;14.33;100.00
59650;BME280;46162;57.568;25.814;2023-06-22T00:09:09;100734.16;;;14.25;100.00
59650;BME280;46162;57.568;25.814;2023-06-22T00:11:38;100725.69;;;14.20;100.00
59650;BME280;46162;57.568;25.814;2023-06-22T00:14:06;100725.50;;;14.22;100.00
59650;BME280;46162;57.568;25.814;2023-06-22T00:16:35;100721.28;;;14.19;100.00
59650;BME280;46162;57.568;25.814;2023-06-22T00:19:04;100717.47;;;13.89;100.00
59650;BME280;46162;57.568;25.814;2023-06-22T00:21:33;100713.94;;;13.80;100.00
59650;BME280;46162;57.568;25.814;2023-06-22T00:24:03;100718.13;;;13.91;100.00
59650;BME280;46162;57.568;25.814;2023-06-22T00:26:33;100715.94;;;13.86;100.00
59650;BME280;46162;57.568;25.814;2023-06-22T00:29:02;100713.59;;;13.75;100.00
59650;BME280;46162;57.568;25.814;2023-06-22T00:31:30;100706.78;;;13.79;100.00
59650;BME280;46162;57.568;25.814;2023-06-22T00:33:59;100706.47;;;13.74;100.00
59650;BME280;46162;57.568;25.814;2023-06-22T00:36:27;100701.53;;;13.69;100.00
59650;BME280;46162;57.568;25.814;2023-06-22T00:38:56;100700.03;;;13.67;100.00
59650;BME280;46162;57.568;25.814;2023-06-22T00:41:26;100689.34;;;13.57;100.00
59650;BME280;46162;57.568;25.814;2023-06-22T00:43:55;100701.06;;;13.49;100.00
59650;BME280;46162;57.568;25.814;2023-06-22T00:46:24;100701.75;;;13.35;100.00
59650;BME280;46162;57.568;25.814;2023-06-22T00:48:55;100694.47;;;13.44;100.00
59650;BME280;46162;57.568;25.814;2023-06-22T00:51:24;100694.63;;;13.50;100.00
59650;BME280;46162;57.568;25.814;2023-06-22T00:53:54;100692.25;;;13.47;100.00
59650;BME280;46162;57.568;25.814;2023-06-22T00:56:23;100691.75;;;13.36;100.00
59650;BME280;46162;57.568;25.814;2023-06-22T00:58:54;100695.13;;;13.29;100.00
59650;BME280;46162;57.568;25.814;2023-06-22T01:01:24;100690.41;;;13.31;100.00
59650;BME280;46162;57.568;25.814;2023-06-22T01:03:54;100686.78;;;13.15;100.00
59650;BME280;46162;57.568;25.814;2023-06-22T01:06:29;100689.50;;;13.23;100.00
59650;BME280;46162;57.568;25.814;2023-06-22T01:09:10;100684.06;;;13.23;100.00
59650;BME280;46162;57.568;25.814;2023-06-22T01:11:45;100685.09;;;13.22;100.00
59650;BME280;46162;57.568;25.814;2023-06-22T01:14:22;100684.78;;;13.17;100.00
59650;BME280;46162;57.568;25.814;2023-06-22T01:16:56;100687.63;;;13.15;100.00
59650;BME280;46162;57.568;25.814;2023-06-22T01:19:35;100677.16;;;13.04;100.00
59650;BME280;46162;57.568;25.814;2023-06-22T01:22:10;100680.38;;;13.16;100.00
59650;BME280;46162;57.568;25.814;2023-06-22T01:24:51;100678.34;;;13.26;100.00
59650;BME280;46162;57.568;25.814;2023-06-22T01:27:32;100676.63;;;13.17;100.00
59650;BME280;46162;57.568;25.814;2023-06-22T01:30:05;100667.13;;;13.12;100.00
59650;BME280;46162;57.568;25.814;2023-06-22T01:32:38;100668.81;;;13.05;100.00
59650;BME280;46162;57.568;25.814;2023-06-22T01:35:08;100667.81;;;13.06;100.00
59650;BME280;46162;57.568;25.814;2023-06-22T01:37:38;100666.81;;;13.07;100.00
59650;BME280;46162;57.568;25.814;2023-06-22T01:40:08;100664.44;;;13.12;100.00
59650;BME280;46162;57.568;25.814;2023-06-22T01:42:37;100663.41;;;13.22;100.00
59650;BME280;46162;57.568;25.814;2023-06-22T01:45:10;100658.38;;;13.27;100.00
59650;BME280;46162;57.568;25.814;2023-06-22T01:47:40;100651.25;;;13.34;100.00
59650;BME280;46162;57.568;25.814;2023-06-22T01:50:09;100661.44;;;13.40;100.00
59650;BME280;46162;57.568;25.814;2023-06-22T01:52:39;100657.69;;;13.33;100.00
59650;BME280;46162;57.568;25.814;2023-06-22T01:55:08;100653.47;;;13.30;100.00
59650;BME280;46162;57.568;25.814;2023-06-22T01:57:39;100659.88;;;13.46;100.00
59650;BME280;46162;57.568;25.814;2023-06-22T02:00:12;100650.75;;;13.39;100.00
59650;BME280;46162;57.568;25.814;2023-06-22T02:02:48;100648.50;;;13.59;100.00
59650;BME280;46162;57.568;25.814;2023-06-22T02:05:24;100647.97;;;13.71;100.00
59650;BME280;46162;57.568;25.814;2023-06-22T02:07:59;100649.16;;;13.69;100.00
59650;BME280;46162;57.568;25.814;2023-06-22T02:10:31;100652.50;;;13.79;100.00
59650;BME280;46162;57.568;25.814;2023-06-22T02:13:01;100646.72;;;13.90;100.00
59650;BME280;46162;57.568;25.814;2023-06-22T02:15:32;100654.63;;;14.08;100.00
59650;BME280;46162;57.568;25.814;2023-06-22T02:18:00;100646.66;;;14.15;100.00
59650;BME280;46162;57.568;25.814;2023-06-22T02:20:30;100647.66;;;14.14;100.00
59650;BME280;46162;57.568;25.814;2023-06-22T02:22:58;100651.03;;;14.16;100.00
59650;BME280;46162;57.568;25.814;2023-06-22T02:25:27;100650.97;;;14.32;100.00
59650;BME280;46162;57.568;25.814;2023-06-22T02:27:55;100647.53;;;14.38;100.00
59650;BME280;46162;57.568;25.814;2023-06-22T02:30:24;100637.78;;;14.52;100.00
59650;BME280;46162;57.568;25.814;2023-06-22T02:32:54;100637.22;;;14.65;100.00
59650;BME280;46162;57.568;25.814;2023-06-22T02:35:27;100640.56;;;14.75;100.00
59650;BME280;46162;57.568;25.814;2023-06-22T02:37:58;100641.75;;;14.96;100.00
59650;BME280;46162;57.568;25.814;2023-06-22T02:40:28;100640.25;;;15.16;100.00
59650;BME280;46162;57.568;25.814;2023-06-22T02:42:58;100644.69;;;15.32;100.00
59650;BME280;46162;57.568;25.814;2023-06-22T02:45:30;100638.25;;;15.33;100.00
59650;BME280;46162;57.568;25.814;2023-06-22T02:48:00;100641.91;;;15.55;100.00
59650;BME280;46162;57.568;25.814;2023-06-22T02:50:29;100648.22;;;15.56;100.00
59650;BME280;46162;57.568;25.814;2023-06-22T02:52:59;100651.66;;;15.73;100.00
59650;BME280;46162;57.568;25.814;2023-06-22T02:55:30;100648.56;;;15.76;100.00
59650;BME280;46162;57.568;25.814;2023-06-22T02:57:59;100652.03;;;15.84;100.00
59650;BME280;46162;57.568;25.814;2023-06-22T03:00:35;100642.34;;;15.97;100.00
59650;BME280;46162;57.568;25.814;2023-06-22T03:03:05;100640.44;;;16.12;100.00
59650;BME280;46162;57.568;25.814;2023-06-22T03:05:34;100641.78;;;16.16;100.00
59650;BME280;46162;57.568;25.814;2023-06-22T03:08:03;100636.81;;;16.20;100.00
59650;BME280;46162;57.568;25.814;2023-06-22T03:10:34;100638.66;;;16.34;100.00
59650;BME280;46162;57.568;25.814;2023-06-22T03:13:03;100642.19;;;16.49;100.00
59650;BME280;46162;57.568;25.814;2023-06-22T03:15:32;100636.91;;;16.63;100.00
59650;BME280;46162;57.568;25.814;2023-06-22T03:18:01;100631.78;;;16.74;100.00
59650;BME280;46162;57.568;25.814;2023-06-22T03:20:31;100635.47;;;16.82;100.00
59650;BME280;46162;57.568;25.814;2023-06-22T03:23:00;100627.22;;;16.96;100.00
59650;BME280;46162;57.568;25.814;2023-06-22T03:25:29;100629.25;;;17.16;100.00
59650;BME280;46162;57.568;25.814;2023-06-22T03:27:58;100628.34;;;17.30;100.00
59650;BME280;46162;57.568;25.814;2023-06-22T03:30:28;100631.19;;;17.44;100.00
59650;BME280;46162;57.568;25.814;2023-06-22T03:32:57;100626.88;;;17.56;100.00
59650;BME280;46162;57.568;25.814;2023-06-22T03:35:26;100619.81;;;17.68;100.00
59650;BME280;46162;57.568;25.814;2023-06-22T03:37:56;100620.28;;;17.78;100.00
59650;BME280;46162;57.568;25.814;2023-06-22T03:40:25;100614.25;;;17.83;100.00
59650;BME280;46162;57.568;25.814;2023-06-22T03:42:55;100602.97;;;17.99;100.00
59650;BME280;46162;57.568;25.814;2023-06-22T03:45:24;100614.41;;;18.16;100.00
59650;BME280;46162;57.568;25.814;2023-06-22T03:47:52;100610.88;;;18.29;100.00
59650;BME280;46162;57.568;25.814;2023-06-22T03:50:21;100606.97;;;18.45;100.00
59650;BME280;46162;57.568;25.814;2023-06-22T03:52:50;100600.06;;;18.62;100.00
59650;BME280;46162;57.568;25.814;2023-06-22T03:55:21;100598.03;;;18.78;100.00
59650;BME280;46162;57.568;25.814;2023-06-22T03:57:49;100594.66;;;18.96;100.00
59650;BME280;46162;57.568;25.814;2023-06-22T04:00:20;100582.25;;;19.20;100.00
59650;BME280;46162;57.568;25.814;2023-06-22T04:02:49;100581.84;;;19.29;100.00
59650;BME280;46162;57.568;25.814;2023-06-22T04:05:17;100577.59;;;19.53;100.00
59650;BME280;46162;57.568;25.814;2023-06-22T04:07:46;100585.38;;;19.70;100.00
59650;BME280;46162;57.568;25.814;2023-06-22T04:10:15;100577.16;;;19.83;100.00
59650;BME280;46162;57.568;25.814;2023-06-22T04:12:45;100576.00;;;19.97;100.00
59650;BME280;46162;57.568;25.814;2023-06-22T04:15:14;100567.09;;;20.15;100.00
59650;BME280;46162;57.568;25.814;2023-06-22T04:17:43;100571.44;;;20.30;100.00
59650;BME280;46162;57.568;25.814;2023-06-22T04:20:12;100563.38;;;20.41;100.00
59650;BME280;46162;57.568;25.814;2023-06-22T04:22:40;100563.09;;;20.50;100.00
59650;BME280;46162;57.568;25.814;2023-06-22T04:25:09;100557.16;;;20.59;100.00
59650;BME280;46162;57.568;25.814;2023-06-22T04:27:38;100553.78;;;20.64;100.00
59650;BME280;46162;57.568;25.814;2023-06-22T04:30:09;100556.84;;;20.74;100.00
59650;BME280;46162;57.568;25.814;2023-06-22T04:32:39;100547.97;;;20.79;100.00
59650;BME280;46162;57.568;25.814;2023-06-22T04:35:08;100550.03;;;20.83;100.00
59650;BME280;46162;57.568;25.814;2023-06-22T04:37:37;100546.69;;;20.81;100.00
59650;BME280;46162;57.568;25.814;2023-06-22T04:40:07;100549.53;;;20.93;100.00
59650;BME280;46162;57.568;25.814;2023-06-22T04:42:38;100541.88;;;21.02;100.00
59650;BME280;46162;57.568;25.814;2023-06-22T04:45:09;100546.00;;;21.11;100.00
59650;BME280;46162;57.568;25.814;2023-06-22T04:47:38;100545.97;;;21.18;100.00
59650;BME280;46162;57.568;25.814;2023-06-22T04:50:07;100540.16;;;21.26;100.00
59650;BME280;46162;57.568;25.814;2023-06-22T04:52:35;100535.84;;;21.37;100.00
59650;BME280;46162;57.568;25.814;2023-06-22T04:55:05;100528.34;;;21.51;100.00
59650;BME280;46162;57.568;25.814;2023-06-22T04:57:34;100534.06;;;21.49;100.00
59650;BME280;46162;57.568;25.814;2023-06-22T05:00:03;100517.28;;;21.57;100.00
59650;BME280;46162;57.568;25.814;2023-06-22T05:02:42;100517.25;;;21.76;100.00
59650;BME280;46162;57.568;25.814;2023-06-22T05:05:11;100515.97;;;21.78;100.00
59650;BME280;46162;57.568;25.814;2023-06-22T05:07:42;100511.47;;;21.84;100.00
59650;BME280;46162;57.568;25.814;2023-06-22T05:10:11;100505.28;;;21.88;100.00
59650;BME280;46162;57.568;25.814;2023-06-22T05:12:40;100500.91;;;21.99;100.00
59650;BME280;46162;57.568;25.814;2023-06-22T05:15:09;100500.69;;;22.01;100.00
59650;BME280;46162;57.568;25.814;2023-06-22T05:17:38;100494.63;;;22.10;100.00
59650;BME280;46162;57.568;25.814;2023-06-22T05:20:12;100486.97;;;22.12;100.00
59650;BME280;46162;57.568;25.814;2023-06-22T05:22:45;100486.84;;;22.26;100.00
59650;BME280;46162;57.568;25.814;2023-06-22T05:25:14;100483.84;;;22.27;100.00
59650;BME280;46162;57.568;25.814;2023-06-22T05:27:43;100487.00;;;22.43;100.00
59650;BME280;46162;57.568;25.814;2023-06-22T05:30:11;100484.63;;;22.46;100.00
59650;BME280;46162;57.568;25.814;2023-06-22T05:32:40;100487.97;;;22.48;100.00
59650;BME280;46162;57.568;25.814;2023-06-22T05:35:09;100491.91;;;22.52;100.00
59650;BME280;46162;57.568;25.814;2023-06-22T05:37:39;100486.91;;;22.61;100.00
59650;BME280;46162;57.568;25.814;2023-06-22T05:40:09;100490.25;;;22.51;100.00
59650;BME280;46162;57.568;25.814;2023-06-22T05:42:38;100496.09;;;22.55;100.00
59650;BME280;46162;57.568;25.814;2023-06-22T05:45:07;100499.19;;;22.17;100.00
59650;BME280;46162;57.568;25.814;2023-06-22T05:47:35;100499.06;;;22.11;100.00
59650;BME280;46162;57.568;25.814;2023-06-22T05:50:05;100506.41;;;21.99;100.00
59650;BME280;46162;57.568;25.814;2023-06-22T05:52:40;100506.19;;;22.01;100.00
59650;BME280;46162;57.568;25.814;2023-06-22T05:55:09;100515.69;;;21.86;100.00
59650;BME280;46162;57.568;25.814;2023-06-22T05:57:38;100522.91;;;21.81;100.00
59650;BME280;46162;57.568;25.814;2023-06-22T06:00:08;100523.84;;;21.75;100.00
59650;BME280;46162;57.568;25.814;2023-06-22T06:02:39;100518.19;;;21.69;100.00
59650;BME280;46162;57.568;25.814;2023-06-22T06:05:11;100525.06;;;21.60;100.00
59650;BME280;46162;57.568;25.814;2023-06-22T06:07:42;100527.44;;;21.57;100.00
59650;BME280;46162;57.568;25.814;2023-06-22T06:10:12;100526.41;;;21.51;100.00
59650;BME280;46162;57.568;25.814;2023-06-22T06:12:40;100539.41;;;21.44;100.00
59650;BME280;46162;57.568;25.814;2023-06-22T06:15:09;100544.94;;;21.37;100.00
59650;BME280;46162;57.568;25.814;2023-06-22T06:17:45;100549.84;;;21.29;100.00
59650;BME280;46162;57.568;25.814;2023-06-22T06:20:15;100544.78;;;21.32;100.00
59650;BME280;46162;57.568;25.814;2023-06-22T06:22:45;100547.66;;;21.44;100.00
59650;BME280;46162;57.568;25.814;2023-06-22T06:25:14;100552.28;;;21.18;100.00
59650;BME280;46162;57.568;25.814;2023-06-22T06:27:45;100558.50;;;21.32;100.00
59650;BME280;46162;57.568;25.814;2023-06-22T06:30:15;100566.47;;;21.15;100.00
59650;BME280;46162;57.568;25.814;2023-06-22T06:32:44;100569.16;;;21.22;100.00
59650;BME280;46162;57.568;25.814;2023-06-22T06:35:14;100569.75;;;20.99;100.00
59650;BME280;46162;57.568;25.814;2023-06-22T06:37:45;100566.69;;;20.89;100.00
59650;BME280;46162;57.568;25.814;2023-06-22T06:40:15;100569.06;;;20.78;100.00
59650;BME280;46162;57.568;25.814;2023-06-22T06:42:47;100573.16;;;20.69;100.00
59650;BME280;46162;57.568;25.814;2023-06-22T06:45:18;100570.50;;;20.56;100.00
59650;BME280;46162;57.568;25.814;2023-06-22T06:47:47;100569.66;;;20.49;100.00
59650;BME280;46162;57.568;25.814;2023-06-22T06:50:16;100578.16;;;20.40;100.00
59650;BME280;46162;57.568;25.814;2023-06-22T06:52:46;100590.50;;;20.18;100.00
59650;BME280;46162;57.568;25.814;2023-06-22T06:55:17;100601.31;;;20.00;100.00
59650;BME280;46162;57.568;25.814;2023-06-22T06:57:46;100602.59;;;19.90;100.00
59650;BME280;46162;57.568;25.814;2023-06-22T07:00:16;100620.16;;;19.76;100.00
59650;BME280;46162;57.568;25.814;2023-06-22T07:02:45;100613.81;;;19.55;100.00
59650;BME280;46162;57.568;25.814;2023-06-22T07:05:16;100635.34;;;19.39;100.00
59650;BME280;46162;57.568;25.814;2023-06-22T07:07:46;100634.03;;;19.21;100.00
59650;BME280;46162;57.568;25.814;2023-06-22T07:10:14;100630.69;;;19.12;100.00
59650;BME280;46162;57.568;25.814;2023-06-22T07:12:43;100616.34;;;18.97;100.00
59650;BME280;46162;57.568;25.814;2023-06-22T07:15:13;100593.41;;;18.91;100.00
59650;BME280;46162;57.568;25.814;2023-06-22T07:17:42;100589.84;;;19.04;100.00
59650;BME280;46162;57.568;25.814;2023-06-22T07:20:12;100609.19;;;19.03;100.00
59650;BME280;46162;57.568;25.814;2023-06-22T07:22:42;100601.22;;;18.95;100.00
59650;BME280;46162;57.568;25.814;2023-06-22T07:25:13;100592.34;;;18.86;100.00
59650;BME280;46162;57.568;25.814;2023-06-22T07:27:46;100588.34;;;19.08;100.00
59650;BME280;46162;57.568;25.814;2023-06-22T07:30:25;100575.53;;;19.16;100.00
59650;BME280;46162;57.568;25.814;2023-06-22T07:32:54;100573.81;;;19.21;100.00
59650;BME280;46162;57.568;25.814;2023-06-22T07:35:23;100569.84;;;19.24;100.00
59650;BME280;46162;57.568;25.814;2023-06-22T07:37:52;100578.06;;;19.24;100.00
59650;BME280;46162;57.568;25.814;2023-06-22T07:40:22;100573.59;;;19.36;100.00
59650;BME280;46162;57.568;25.814;2023-06-22T07:42:51;100583.50;;;19.44;100.00
59650;BME280;46162;57.568;25.814;2023-06-22T07:45:22;100585.19;;;19.51;100.00
59650;BME280;46162;57.568;25.814;2023-06-22T07:47:51;100590.88;;;19.57;100.00
59650;BME280;46162;57.568;25.814;2023-06-22T07:50:19;100592.75;;;19.76;100.00
59650;BME280;46162;57.568;25.814;2023-06-22T07:52:48;100589.50;;;19.99;100.00
59650;BME280;46162;57.568;25.814;2023-06-22T07:55:17;100596.09;;;19.85;100.00
59650;BME280;46162;57.568;25.814;2023-06-22T07:57:49;100590.53;;;20.05;100.00
59650;BME280;46162;57.568;25.814;2023-06-22T08:00:19;100601.47;;;20.18;100.00
59650;BME280;46162;57.568;25.814;2023-06-22T08:02:48;100605.41;;;20.29;100.00
59650;BME280;46162;57.568;25.814;2023-06-22T08:05:17;100599.66;;;20.44;100.00
59650;BME280;46162;57.568;25.814;2023-06-22T08:07:48;100594.97;;;20.51;100.00
59650;BME280;46162;57.568;25.814;2023-06-22T08:10:18;100595.19;;;20.56;100.00
59650;BME280;46162;57.568;25.814;2023-06-22T08:12:48;100589.84;;;20.68;100.00
59650;BME280;46162;57.568;25.814;2023-06-22T08:15:18;100595.06;;;20.76;100.00
59650;BME280;46162;57.568;25.814;2023-06-22T08:17:52;100587.63;;;20.83;100.00
59650;BME280;46162;57.568;25.814;2023-06-22T08:20:20;100593.25;;;20.95;100.00
59650;BME280;46162;57.568;25.814;2023-06-22T08:22:49;100582.25;;;20.70;100.00
59650;BME280;46162;57.568;25.814;2023-06-22T08:25:18;100577.69;;;20.82;100.00
59650;BME280;46162;57.568;25.814;2023-06-22T08:27:46;100588.88;;;20.87;100.00
59650;BME280;46162;57.568;25.814;2023-06-22T08:32:46;100574.81;;;21.02;100.00
59650;BME280;46162;57.568;25.814;2023-06-22T08:35:15;100574.69;;;21.15;100.00
59650;BME280;46162;57.568;25.814;2023-06-22T08:37:44;100574.16;;;21.32;100.00
59650;BME280;46162;57.568;25.814;2023-06-22T08:40:18;100582.44;;;21.50;100.00
59650;BME280;46162;57.568;25.814;2023-06-22T08:42:47;100583.75;;;21.66;100.00
59650;BME280;46162;57.568;25.814;2023-06-22T08:45:17;100582.53;;;21.62;100.00
59650;BME280;46162;57.568;25.814;2023-06-22T08:47:46;100573.63;;;21.66;100.00
59650;BME280;46162;57.568;25.814;2023-06-22T08:50:15;100580.78;;;21.67;100.00
59650;BME280;46162;57.568;25.814;2023-06-22T08:52:44;100581.59;;;21.68;100.00
59650;BME280;46162;57.568;25.814;2023-06-22T08:55:13;100580.94;;;21.73;100.00
59650;BME280;46162;57.568;25.814;2023-06-22T08:57:41;100575.28;;;21.49;100.00
59650;BME280;46162;57.568;25.814;2023-06-22T09:00:11;100583.69;;;21.54;100.00
59650;BME280;46162;57.568;25.814;2023-06-22T09:02:50;100579.06;;;21.48;100.00
59650;BME280;46162;57.568;25.814;2023-06-22T09:05:19;100578.22;;;21.47;100.00
59650;BME280;46162;57.568;25.814;2023-06-22T09:07:49;100599.22;;;21.60;100.00
59650;BME280;46162;57.568;25.814;2023-06-22T09:10:17;100591.09;;;21.72;100.00
59650;BME280;46162;57.568;25.814;2023-06-22T09:12:46;100592.59;;;21.50;100.00
59650;BME280;46162;57.568;25.814;2023-06-22T09:15:15;100586.13;;;21.62;100.00
59650;BME280;46162;57.568;25.814;2023-06-22T09:17:44;100582.91;;;21.47;100.00
59650;BME280;46162;57.568;25.814;2023-06-22T09:20:16;100579.69;;;21.50;100.00
59650;BME280;46162;57.568;25.814;2023-06-22T09:22:45;100581.00;;;21.66;100.00
59650;BME280;46162;57.568;25.814;2023-06-22T09:25:14;100574.97;;;21.57;100.00
59650;BME280;46162;57.568;25.814;2023-06-22T09:27:43;100581.25;;;21.64;100.00
59650;BME280;46162;57.568;25.814;2023-06-22T09:30:12;100586.88;;;21.69;100.00
59650;BME280;46162;57.568;25.814;2023-06-22T09:32:40;100562.63;;;21.66;100.00
59650;BME280;46162;57.568;25.814;2023-06-22T09:35:09;100559.88;;;21.66;100.00
59650;BME280;46162;57.568;25.814;2023-06-22T09:37:41;100550.78;;;21.84;100.00
59650;BME280;46162;57.568;25.814;2023-06-22T09:40:10;100550.72;;;21.91;100.00
59650;BME280;46162;57.568;25.814;2023-06-22T09:42:41;100548.69;;;21.98;100.00
59650;BME280;46162;57.568;25.814;2023-06-22T09:45:10;100548.78;;;21.55;100.00
59650;BME280;46162;57.568;25.814;2023-06-22T09:47:39;100547.47;;;21.39;100.00
59650;BME280;46162;57.568;25.814;2023-06-22T09:50:09;100542.25;;;21.31;100.00
59650;BME280;46162;57.568;25.814;2023-06-22T09:52:37;100535.91;;;21.30;100.00
59650;BME280;46162;57.568;25.814;2023-06-22T09:55:16;100534.81;;;21.13;100.00
59650;BME280;46162;57.568;25.814;2023-06-22T09:57:44;100528.50;;;21.12;100.00
59650;BME280;46162;57.568;25.814;2023-06-22T10:00:14;100522.75;;;21.14;100.00
59650;BME280;46162;57.568;25.814;2023-06-22T10:02:43;100524.28;;;21.10;100.00
59650;BME280;46162;57.568;25.814;2023-06-22T10:05:12;100523.63;;;21.14;100.00
59650;BME280;46162;57.568;25.814;2023-06-22T10:07:42;100530.00;;;21.08;100.00
59650;BME280;46162;57.568;25.814;2023-06-22T10:10:12;100526.72;;;20.99;100.00
59650;BME280;46162;57.568;25.814;2023-06-22T10:12:47;100517.34;;;21.07;100.00
59650;BME280;46162;57.568;25.814;2023-06-22T10:15:16;100507.75;;;20.91;100.00
59650;BME280;46162;57.568;25.814;2023-06-22T10:17:45;100497.91;;;20.83;100.00
59650;BME280;46162;57.568;25.814;2023-06-22T10:20:14;100498.13;;;20.82;100.00
59650;BME280;46162;57.568;25.814;2023-06-22T10:22:45;100494.34;;;20.83;100.00
59650;BME280;46162;57.568;25.814;2023-06-22T10:25:14;100501.72;;;20.82;100.00
59650;BME280;46162;57.568;25.814;2023-06-22T10:27:42;100500.97;;;20.69;100.00
59650;BME280;46162;57.568;25.814;2023-06-22T10:30:14;100489.28;;;20.55;100.00
59650;BME280;46162;57.568;25.814;2023-06-22T10:32:43;100486.09;;;20.58;100.00
59650;BME280;46162;57.568;25.814;2023-06-22T10:35:12;100486.94;;;20.58;100.00
59650;BME280;46162;57.568;25.814;2023-06-22T10:37:43;100483.13;;;20.59;100.00
59650;BME280;46162;57.568;25.814;2023-06-22T10:40:13;100489.69;;;20.52;100.00
59650;BME280;46162;57.568;25.814;2023-06-22T10:42:42;100492.41;;;20.58;100.00
59650;BME280;46162;57.568;25.814;2023-06-22T10:45:12;100482.00;;;20.35;100.00
59650;BME280;46162;57.568;25.814;2023-06-22T10:47:42;100478.19;;;20.36;100.00
59650;BME280;46162;57.568;25.814;2023-06-22T10:50:11;100485.00;;;20.27;100.00
59650;BME280;46162;57.568;25.814;2023-06-22T10:52:40;100490.63;;;20.39;100.00
59650;BME280;46162;57.568;25.814;2023-06-22T10:55:09;100486.34;;;20.18;100.00
59650;BME280;46162;57.568;25.814;2023-06-22T10:57:38;100483.03;;;20.03;100.00
59650;BME280;46162;57.568;25.814;2023-06-22T11:00:13;100483.44;;;20.06;100.00
59650;BME280;46162;57.568;25.814;2023-06-22T11:02:43;100479.44;;;20.09;100.00
59650;BME280;46162;57.568;25.814;2023-06-22T11:05:12;100477.72;;;20.08;100.00
59650;BME280;46162;57.568;25.814;2023-06-22T11:07:42;100478.63;;;20.02;100.00
59650;BME280;46162;57.568;25.814;2023-06-22T11:10:13;100477.50;;;20.16;100.00
59650;BME280;46162;57.568;25.814;2023-06-22T11:12:42;100479.09;;;20.30;100.00
59650;BME280;46162;57.568;25.814;2023-06-22T11:15:10;100466.94;;;20.45;100.00
59650;BME280;46162;57.568;25.814;2023-06-22T11:17:41;100470.75;;;20.44;100.00
59650;BME280;46162;57.568;25.814;2023-06-22T11:20:10;100465.97;;;20.32;100.00
59650;BME280;46162;57.568;25.814;2023-06-22T11:22:40;100467.75;;;20.20;100.00
59650;BME280;46162;57.568;25.814;2023-06-22T11:25:09;100462.97;;;20.09;100.00
59650;BME280;46162;57.568;25.814;2023-06-22T11:27:38;100455.63;;;20.03;100.00
59650;BME280;46162;57.568;25.814;2023-06-22T11:30:08;100456.97;;;19.93;100.00
59650;BME280;46162;57.568;25.814;2023-06-22T11:32:37;100458.06;;;19.86;100.00
59650;BME280;46162;57.568;25.814;2023-06-22T11:35:08;100454.03;;;19.88;100.00
59650;BME280;46162;57.568;25.814;2023-06-22T11:37:37;100453.66;;;19.78;100.00
59650;BME280;46162;57.568;25.814;2023-06-22T11:40:06;100453.44;;;19.80;100.00
59650;BME280;46162;57.568;25.814;2023-06-22T11:42:36;100464.84;;;19.76;100.00
59650;BME280;46162;57.568;25.814;2023-06-22T11:45:06;100471.81;;;19.66;100.00
59650;BME280;46162;57.568;25.814;2023-06-22T11:47:35;100468.44;;;19.70;100.00
59650;BME280;46162;57.568;25.814;2023-06-22T11:50:05;100463.81;;;19.71;100.00
59650;BME280;46162;57.568;25.814;2023-06-22T11:52:35;100466.75;;;19.76;100.00
59650;BME280;46162;57.568;25.814;2023-06-22T11:55:05;100460.09;;;19.97;100.00
59650;BME280;46162;57.568;25.814;2023-06-22T11:57:34;100466.59;;;20.03;100.00
59650;BME280;46162;57.568;25.814;2023-06-22T12:00:05;100467.66;;;20.02;100.00
59650;BME280;46162;57.568;25.814;2023-06-22T12:02:43;100466.03;;;19.87;100.00
59650;BME280;46162;57.568;25.814;2023-06-22T12:05:13;100467.78;;;19.82;100.00
59650;BME280;46162;57.568;25.814;2023-06-22T12:07:43;100465.03;;;19.82;100.00
59650;BME280;46162;57.568;25.814;2023-06-22T12:10:11;100463.34;;;19.81;100.00
59650;BME280;46162;57.568;25.814;2023-06-22T12:12:40;100464.00;;;19.76;100.00
59650;BME280;46162;57.568;25.814;2023-06-22T12:15:10;100467.13;;;19.86;100.00
59650;BME280;46162;57.568;25.814;2023-06-22T12:17:39;100469.41;;;19.89;100.00
59650;BME280;46162;57.568;25.814;2023-06-22T12:20:09;100466.31;;;19.72;100.00
59650;BME280;46162;57.568;25.814;2023-06-22T12:22:43;100464.22;;;19.68;100.00
59650;BME280;46162;57.568;25.814;2023-06-22T12:25:12;100464.66;;;19.65;100.00
59650;BME280;46162;57.568;25.814;2023-06-22T12:27:40;100468.91;;;19.54;100.00
59650;BME280;46162;57.568;25.814;2023-06-22T12:30:09;100470.00;;;19.46;100.00
59650;BME280;46162;57.568;25.814;2023-06-22T12:32:38;100465.13;;;19.48;100.00
59650;BME280;46162;57.568;25.814;2023-06-22T12:35:08;100473.56;;;19.40;100.00
59650;BME280;46162;57.568;25.814;2023-06-22T12:37:42;100475.28;;;19.41;100.00
59650;BME280;46162;57.568;25.814;2023-06-22T12:40:12;100471.47;;;19.36;100.00
59650;BME280;46162;57.568;25.814;2023-06-22T12:42:40;100470.25;;;19.25;100.00
59650;BME280;46162;57.568;25.814;2023-06-22T12:45:10;100469.44;;;19.18;100.00
59650;BME280;46162;57.568;25.814;2023-06-22T12:47:38;100471.97;;;19.19;100.00